sensor_id;sensor_type;location;lat;lon;timestamp;pressure;altitude;pressure_sealevel;temperature;humidity
2268;BME280;11052;43.338;25.502;2023-01-28T00:01:48;100296.28;;;0.94;100.00
2268;BME280;11052;43.338;25.502;2023-01-28T00:04:15;100301.31;;;0.82;100.00
2268;BME280;11052;43.338;25.502;2023-01-28T00:06:44;100309.09;;;1.01;100.00
2268;BME280;11052;43.338;25.502;2023-01-28T00:09:11;100313.22;;;0.83;100.00
2268;BME280;11052;43.338;25.502;2023-01-28T00:11:38;100300.44;;;0.80;100.00
2268;BME280;11052;43.338;25.502;2023-01-28T00:14:05;100309.03;;;0.91;100.00
2268;BME280;11052;43.338;25.502;2023-01-28T00:16:32;100319.22;;;0.91;100.00
2268;BME280;11052;43.338;25.502;2023-01-28T00:19:00;100314.09;;;0.85;100.00
2268;BME280;11052;43.338;25.502;2023-01-28T00:21:27;100320.91;;;0.89;100.00
2268;BME280;11052;43.338;25.502;2023-01-28T00:23:56;100324.31;;;0.85;100.00
2268;BME280;11052;43.338;25.502;2023-01-28T00:26:23;100328.56;;;0.85;100.00
2268;BME280;11052;43.338;25.502;2023-01-28T00:28:51;100323.47;;;0.89;100.00
2268;BME280;11052;43.338;25.502;2023-01-28T00:31:22;100326.88;;;0.91;100.00
2268;BME280;11052;43.338;25.502;2023-01-28T00:33:50;100333.66;;;0.86;100.00
2268;BME280;11052;43.338;25.502;2023-01-28T00:36:18;100326.81;;;0.82;100.00
2268;BME280;11052;43.338;25.502;2023-01-28T00:38:48;100320.78;;;0.74;100.00
2268;BME280;11052;43.338;25.502;2023-01-28T00:41:18;100323.31;;;0.73;100.00
2268;BME280;11052;43.338;25.502;2023-01-28T00:43:47;100331.06;;;0.82;100.00
2268;BME280;11052;43.338;25.502;2023-01-28T00:46:14;100328.47;;;0.77;100.00
2268;BME280;11052;43.338;25.502;2023-01-28T00:48:42;100334.34;;;0.69;100.00
2268;BME280;11052;43.338;25.502;2023-01-28T00:51:12;100342.84;;;0.71;100.00
2268;BME280;11052;43.338;25.502;2023-01-28T00:53:39;100337.03;;;0.82;100.00
2268;BME280;11052;43.338;25.502;2023-01-28T00:56:10;100336.13;;;0.79;100.00
2268;BME280;11052;43.338;25.502;2023-01-28T00:58:39;100346.34;;;0.79;100.00
2268;BME280;11052;43.338;25.502;2023-01-28T01:01:07;100340.47;;;0.86;100.00
2268;BME280;11052;43.338;25.502;2023-01-28T01:03:35;100339.66;;;0.93;100.00
2268;BME280;11052;43.338;25.502;2023-01-28T01:06:02;100345.63;;;0.96;100.00
2268;BME280;11052;43.338;25.502;2023-01-28T01:08:29;100345.69;;;1.03;100.00
2268;BME280;11052;43.338;25.502;2023-01-28T01:11:00;100357.69;;;1.10;100.00
2268;BME280;11052;43.338;25.502;2023-01-28T01:13:28;100358.56;;;1.13;100.00
2268;BME280;11052;43.338;25.502;2023-01-28T01:16:05;100362.00;;;1.18;100.00
2268;BME280;11052;43.338;25.502;2023-01-28T01:18:34;100364.59;;;1.21;100.00
2268;BME280;11052;43.338;25.502;2023-01-28T01:21:02;100359.59;;;1.34;100.00
2268;BME280;11052;43.338;25.502;2023-01-28T01:23:30;100356.94;;;1.23;100.00
2268;BME280;11052;43.338;25.502;2023-01-28T01:25:57;100355.25;;;1.23;100.00
2268;BME280;11052;43.338;25.502;2023-01-28T01:28:25;100352.69;;;1.22;100.00
2268;BME280;11052;43.338;25.502;2023-01-28T01:30:58;100356.97;;;1.27;100.00
2268;BME280;11052;43.338;25.502;2023-01-28T01:33:29;100356.97;;;1.27;100.00
2268;BME280;11052;43.338;25.502;2023-01-28T01:35:56;100356.00;;;1.12;100.00
2268;BME280;11052;43.338;25.502;2023-01-28T01:38:24;100358.56;;;1.15;100.00
2268;BME280;11052;43.338;25.502;2023-01-28T01:40:54;100357.81;;;1.25;100.00
2268;BME280;11052;43.338;25.502;2023-01-28T01:43:22;100355.22;;;1.22;100.00
2268;BME280;11052;43.338;25.502;2023-01-28T01:45:52;100354.41;;;1.23;100.00
2268;BME280;11052;43.338;25.502;2023-01-28T01:48:23;100354.38;;;1.20;100.00
2268;BME280;11052;43.338;25.502;2023-01-28T01:50:59;100351.81;;;1.20;100.00
2268;BME280;11052;43.338;25.502;2023-01-28T01:53:27;100358.56;;;1.15;100.00
2268;BME280;11052;43.338;25.502;2023-01-28T01:55:57;100365.41;;;1.17;100.00
2268;BME280;11052;43.338;25.502;2023-01-28T01:58:29;100359.53;;;1.26;100.00
2268;BME280;11052;43.338;25.502;2023-01-28T02:00:57;100360.28;;;1.16;100.00
2268;BME280;11052;43.338;25.502;2023-01-28T02:03:28;100361.97;;;1.14;100.00
2268;BME280;11052;43.338;25.502;2023-01-28T02:05:58;100367.16;;;1.21;100.00
2268;BME280;11052;43.338;25.502;2023-01-28T02:11:04;100368.75;;;1.12;100.00
2268;BME280;11052;43.338;25.502;2023-01-28T02:13:34;100377.31;;;1.17;100.00
2268;BME280;11052;43.338;25.502;2023-01-28T02:16:03;100380.69;;;1.14;100.00
2268;BME280;11052;43.338;25.502;2023-01-28T02:18:31;100380.72;;;1.17;100.00
2268;BME280;11052;43.338;25.502;2023-01-28T02:24:09;100380.63;;;1.08;100.00
2268;BME280;11052;43.338;25.502;2023-01-28T02:27:00;100374.66;;;1.05;100.00
2268;BME280;11052;43.338;25.502;2023-01-28T02:29:37;100382.38;;;1.14;100.00
2268;BME280;11052;43.338;25.502;2023-01-28T02:32:13;100386.56;;;1.06;100.00
2268;BME280;11052;43.338;25.502;2023-01-28T02:34:45;100394.25;;;1.09;100.00
2268;BME280;11052;43.338;25.502;2023-01-28T02:37:16;100390.81;;;1.07;100.00
2268;BME280;11052;43.338;25.502;2023-01-28T02:39:48;100396.69;;;0.96;100.00
2268;BME280;11052;43.338;25.502;2023-01-28T02:42:18;100408.66;;;1.04;100.00
2268;BME280;11052;43.338;25.502;2023-01-28T02:44:48;100398.38;;;0.96;100.00
2268;BME280;11052;43.338;25.502;2023-01-28T02:47:15;100408.72;;;1.10;100.00
2268;BME280;11052;43.338;25.502;2023-01-28T02:50:02;100411.28;;;1.11;100.00
2268;BME280;11052;43.338;25.502;2023-01-28T02:52:44;100408.69;;;1.07;100.00
2268;BME280;11052;43.338;25.502;2023-01-28T02:55:36;100411.28;;;1.10;100.00
2268;BME280;11052;43.338;25.502;2023-01-28T02:58:10;100408.75;;;1.13;100.00
2268;BME280;11052;43.338;25.502;2023-01-28T03:00:47;100423.22;;;1.14;100.00
2268;BME280;11052;43.338;25.502;2023-01-28T03:03:21;100407.97;;;1.20;100.00
2268;BME280;11052;43.338;25.502;2023-01-28T03:05:52;100413.97;;;1.23;100.00
2268;BME280;11052;43.338;25.502;2023-01-28T03:08:37;100412.25;;;1.21;100.00
2268;BME280;11052;43.338;25.502;2023-01-28T03:11:23;100410.53;;;1.20;100.00
2268;BME280;11052;43.338;25.502;2023-01-28T03:14:09;100410.50;;;1.17;100.00
2268;BME280;11052;43.338;25.502;2023-01-28T03:16:58;100414.81;;;1.22;100.00
2268;BME280;11052;43.338;25.502;2023-01-28T03:19:44;100412.22;;;1.19;100.00
2268;BME280;11052;43.338;25.502;2023-01-28T03:22:31;100408.72;;;1.10;100.00
2268;BME280;11052;43.338;25.502;2023-01-28T03:25:21;100404.53;;;1.16;100.00
2268;BME280;11052;43.338;25.502;2023-01-28T03:28:10;100409.66;;;1.16;100.00
2268;BME280;11052;43.338;25.502;2023-01-28T03:30:58;100418.13;;;1.12;100.00
2268;BME280;11052;43.338;25.502;2023-01-28T03:33:47;100418.06;;;1.08;100.00
2268;BME280;11052;43.338;25.502;2023-01-28T03:36:33;100422.28;;;1.04;100.00
2268;BME280;11052;43.338;25.502;2023-01-28T03:39:17;100425.66;;;1.02;100.00
2268;BME280;11052;43.338;25.502;2023-01-28T03:41:55;100429.13;;;1.07;100.00
2268;BME280;11052;43.338;25.502;2023-01-28T03:44:23;100430.91;;;1.15;100.00
2268;BME280;11052;43.338;25.502;2023-01-28T03:47:09;100432.66;;;1.21;100.00
2268;BME280;11052;43.338;25.502;2023-01-28T03:49:39;100428.47;;;1.26;100.00
2268;BME280;11052;43.338;25.502;2023-01-28T03:52:07;100433.47;;;1.15;100.00
2268;BME280;11052;43.338;25.502;2023-01-28T03:54:34;100438.66;;;1.24;100.00
2268;BME280;11052;43.338;25.502;2023-01-28T03:57:02;100443.78;;;1.27;100.00
2268;BME280;11052;43.338;25.502;2023-01-28T03:59:30;100448.13;;;1.36;100.00
2268;BME280;11052;43.338;25.502;2023-01-28T04:01:58;100448.13;;;1.36;100.00
2268;BME280;11052;43.338;25.502;2023-01-28T04:04:28;100443.03;;;1.38;100.00
2268;BME280;11052;43.338;25.502;2023-01-28T04:06:58;100454.97;;;1.37;100.00
2268;BME280;11052;43.338;25.502;2023-01-28T04:09:25;100451.59;;;1.41;100.00
2268;BME280;11052;43.338;25.502;2023-01-28T04:11:53;100463.47;;;1.36;100.00
2268;BME280;11052;43.338;25.502;2023-01-28T04:14:20;100466.06;;;1.41;100.00
2268;BME280;11052;43.338;25.502;2023-01-28T04:16:47;100467.78;;;1.43;100.00
2268;BME280;11052;43.338;25.502;2023-01-28T04:19:14;100464.38;;;1.43;100.00
2268;BME280;11052;43.338;25.502;2023-01-28T04:21:41;100471.22;;;1.45;100.00
2268;BME280;11052;43.338;25.502;2023-01-28T04:24:10;100468.63;;;1.42;100.00
2268;BME280;11052;43.338;25.502;2023-01-28T04:26:37;100463.53;;;1.44;100.00
2268;BME280;11052;43.338;25.502;2023-01-28T04:29:04;100461.72;;;1.32;100.00
2268;BME280;11052;43.338;25.502;2023-01-28T04:31:32;100464.31;;;1.35;100.00
2268;BME280;11052;43.338;25.502;2023-01-28T04:33:59;100467.69;;;1.33;100.00
2268;BME280;11052;43.338;25.502;2023-01-28T04:36:26;100475.25;;;1.23;100.00
2268;BME280;11052;43.338;25.502;2023-01-28T04:38:53;100475.13;;;1.11;100.00
2268;BME280;11052;43.338;25.502;2023-01-28T04:41:22;100480.09;;;1.01;100.00
2268;BME280;11052;43.338;25.502;2023-01-28T04:43:49;100481.75;;;0.97;100.00
2268;BME280;11052;43.338;25.502;2023-01-28T04:46:16;100485.03;;;0.84;100.00
2268;BME280;11052;43.338;25.502;2023-01-28T04:48:43;100490.78;;;0.68;100.00
2268;BME280;11052;43.338;25.502;2023-01-28T04:51:11;100490.69;;;0.61;100.00
2268;BME280;11052;43.338;25.502;2023-01-28T04:53:38;100494.31;;;0.77;100.00
2268;BME280;11052;43.338;25.502;2023-01-28T04:56:05;100499.34;;;0.73;100.00
2268;BME280;11052;43.338;25.502;2023-01-28T04:58:34;100496.06;;;0.81;100.00
2268;BME280;11052;43.338;25.502;2023-01-28T05:01:01;100505.47;;;0.85;100.00
2268;BME280;11052;43.338;25.502;2023-01-28T05:03:28;100506.38;;;0.92;100.00
2268;BME280;11052;43.338;25.502;2023-01-28T05:05:55;100510.69;;;0.99;100.00
2268;BME280;11052;43.338;25.502;2023-01-28T05:08:22;100506.56;;;1.09;100.00
2268;BME280;11052;43.338;25.502;2023-01-28T05:10:49;100506.53;;;1.06;100.00
2268;BME280;11052;43.338;25.502;2023-01-28T05:13:16;100504.97;;;1.17;100.00
2268;BME280;11052;43.338;25.502;2023-01-28T05:15:50;100513.53;;;1.22;100.00
2268;BME280;11052;43.338;25.502;2023-01-28T05:18:17;100520.38;;;1.26;100.00
2268;BME280;11052;43.338;25.502;2023-01-28T05:20:44;100515.28;;;1.27;100.00
2268;BME280;11052;43.338;25.502;2023-01-28T05:23:11;100512.72;;;1.26;100.00
2268;BME280;11052;43.338;25.502;2023-01-28T05:25:38;100522.81;;;1.17;100.00
2268;BME280;11052;43.338;25.502;2023-01-28T05:28:05;100530.53;;;1.20;100.00
2268;BME280;11052;43.338;25.502;2023-01-28T05:30:32;100531.44;;;1.25;100.00
2268;BME280;11052;43.338;25.502;2023-01-28T05:33:01;100528.84;;;1.22;100.00
2268;BME280;11052;43.338;25.502;2023-01-28T05:35:28;100539.84;;;1.16;100.00
2268;BME280;11052;43.338;25.502;2023-01-28T05:37:55;100539.72;;;1.07;100.00
2268;BME280;11052;43.338;25.502;2023-01-28T05:40:22;100544.13;;;1.19;100.00
2268;BME280;11052;43.338;25.502;2023-01-28T05:42:49;100550.94;;;1.20;100.00
2268;BME280;11052;43.338;25.502;2023-01-28T05:45:16;100547.38;;;1.07;100.00
2268;BME280;11052;43.338;25.502;2023-01-28T05:47:43;100563.34;;;0.92;100.00
2268;BME280;11052;43.338;25.502;2023-01-28T05:50:13;100564.47;;;1.11;100.00
2268;BME280;11052;43.338;25.502;2023-01-28T05:52:40;100568.63;;;1.05;100.00
2268;BME280;11052;43.338;25.502;2023-01-28T05:55:08;100566.94;;;1.05;100.00
2268;BME280;11052;43.338;25.502;2023-01-28T05:57:36;100567.00;;;1.10;100.00
2268;BME280;11052;43.338;25.502;2023-01-28T06:00:04;100567.00;;;1.11;100.00
2268;BME280;11052;43.338;25.502;2023-01-28T06:02:31;100577.13;;;1.04;100.00
2268;BME280;11052;43.338;25.502;2023-01-28T06:04:59;100581.41;;;1.06;100.00
2268;BME280;11052;43.338;25.502;2023-01-28T06:07:27;100582.31;;;1.11;100.00
2268;BME280;11052;43.338;25.502;2023-01-28T06:09:54;100583.38;;;1.27;100.00
2268;BME280;11052;43.338;25.502;2023-01-28T06:12:21;100580.81;;;1.25;100.00
2268;BME280;11052;43.338;25.502;2023-01-28T06:14:48;100589.38;;;1.30;100.00
2268;BME280;11052;43.338;25.502;2023-01-28T06:17:15;100582.56;;;1.31;100.00
2268;BME280;11052;43.338;25.502;2023-01-28T06:19:42;100579.16;;;1.29;100.00
2268;BME280;11052;43.338;25.502;2023-01-28T06:22:10;100588.56;;;1.35;100.00
2268;BME280;11052;43.338;25.502;2023-01-28T06:24:38;100586.88;;;1.35;100.00
2268;BME280;11052;43.338;25.502;2023-01-28T06:27:05;100589.50;;;1.41;100.00
2268;BME280;11052;43.338;25.502;2023-01-28T06:29:32;100595.53;;;1.46;100.00
2268;BME280;11052;43.338;25.502;2023-01-28T06:32:00;100598.19;;;1.55;100.00
2268;BME280;11052;43.338;25.502;2023-01-28T06:34:27;100600.75;;;1.57;100.00
2268;BME280;11052;43.338;25.502;2023-01-28T06:36:54;100605.88;;;1.58;100.00
2268;BME280;11052;43.338;25.502;2023-01-28T06:39:21;100607.63;;;1.61;100.00
2268;BME280;11052;43.338;25.502;2023-01-28T06:41:49;100611.00;;;1.60;100.00
2268;BME280;11052;43.338;25.502;2023-01-28T06:44:17;100616.25;;;1.71;100.00
2268;BME280;11052;43.338;25.502;2023-01-28T06:46:44;100614.53;;;1.71;100.00
2268;BME280;11052;43.338;25.502;2023-01-28T06:49:11;100609.44;;;1.74;100.00
2268;BME280;11052;43.338;25.502;2023-01-28T06:51:38;100617.16;;;1.79;100.00
2268;BME280;11052;43.338;25.502;2023-01-28T06:54:06;100618.03;;;1.82;100.00
2268;BME280;11052;43.338;25.502;2023-01-28T06:56:33;100625.72;;;1.84;100.00
2268;BME280;11052;43.338;25.502;2023-01-28T06:59:01;100624.06;;;1.89;100.00
2268;BME280;11052;43.338;25.502;2023-01-28T07:01:28;100630.03;;;1.89;100.00
2268;BME280;11052;43.338;25.502;2023-01-28T07:03:56;100639.41;;;1.90;100.00
2268;BME280;11052;43.338;25.502;2023-01-28T07:06:23;100634.31;;;1.92;100.00
2268;BME280;11052;43.338;25.502;2023-01-28T07:08:50;100638.56;;;1.90;100.00
2268;BME280;11052;43.338;25.502;2023-01-28T07:11:17;100645.31;;;1.85;100.00
2268;BME280;11052;43.338;25.502;2023-01-28T07:13:44;100649.47;;;1.74;100.00
2268;BME280;11052;43.338;25.502;2023-01-28T07:16:13;100646.97;;;1.80;100.00
2268;BME280;11052;43.338;25.502;2023-01-28T07:18:40;100641.00;;;1.78;100.00
2268;BME280;11052;43.338;25.502;2023-01-28T07:21:07;100646.91;;;1.72;100.00
2268;BME280;11052;43.338;25.502;2023-01-28T07:23:34;100650.34;;;1.76;100.00
2268;BME280;11052;43.338;25.502;2023-01-28T07:26:02;100647.75;;;1.74;100.00
2268;BME280;11052;43.338;25.502;2023-01-28T07:28:30;100649.53;;;1.81;100.00
2268;BME280;11052;43.338;25.502;2023-01-28T07:30:57;100647.69;;;1.65;100.00
2268;BME280;11052;43.338;25.502;2023-01-28T07:33:25;100640.88;;;1.66;100.00
2268;BME280;11052;43.338;25.502;2023-01-28T07:35:53;100645.06;;;1.60;100.00
2268;BME280;11052;43.338;25.502;2023-01-28T07:38:20;100638.28;;;1.62;100.00
2268;BME280;11052;43.338;25.502;2023-01-28T07:40:47;100652.81;;;1.65;100.00
2268;BME280;11052;43.338;25.502;2023-01-28T07:43:14;100640.94;;;1.70;100.00
2268;BME280;11052;43.338;25.502;2023-01-28T07:45:42;100644.25;;;1.63;100.00
2268;BME280;11052;43.338;25.502;2023-01-28T07:48:11;100643.44;;;1.67;100.00
2268;BME280;11052;43.338;25.502;2023-01-28T07:50:40;100639.28;;;1.77;100.00
2268;BME280;11052;43.338;25.502;2023-01-28T07:53:09;100642.69;;;1.79;100.00
2268;BME280;11052;43.338;25.502;2023-01-28T07:55:37;100641.88;;;1.80;100.00
2268;BME280;11052;43.338;25.502;2023-01-28T07:58:06;100639.25;;;1.74;100.00
2268;BME280;11052;43.338;25.502;2023-01-28T08:00:35;100638.44;;;1.79;100.00
2268;BME280;11052;43.338;25.502;2023-01-28T08:03:04;100636.66;;;1.68;100.00
2268;BME280;11052;43.338;25.502;2023-01-28T08:05:37;100640.13;;;1.76;100.00
2268;BME280;11052;43.338;25.502;2023-01-28T08:08:08;100641.91;;;1.84;100.00
2268;BME280;11052;43.338;25.502;2023-01-28T08:10:35;100645.41;;;1.92;100.00
2268;BME280;11052;43.338;25.502;2023-01-28T08:13:03;100643.78;;;1.99;100.00
2268;BME280;11052;43.338;25.502;2023-01-28T08:15:31;100633.59;;;2.04;100.00
2268;BME280;11052;43.338;25.502;2023-01-28T08:17:58;100641.28;;;2.07;100.00
2268;BME280;11052;43.338;25.502;2023-01-28T08:20:27;100649.72;;;1.98;100.00
2268;BME280;11052;43.338;25.502;2023-01-28T08:23:04;100649.81;;;2.06;100.00
2268;BME280;11052;43.338;25.502;2023-01-28T08:25:34;100658.28;;;2.02;100.00
2268;BME280;11052;43.338;25.502;2023-01-28T08:28:02;100652.38;;;2.07;100.00
2268;BME280;11052;43.338;25.502;2023-01-28T08:30:29;100659.28;;;2.14;100.00
2268;BME280;11052;43.338;25.502;2023-01-28T08:32:56;100661.00;;;2.17;100.00
2268;BME280;11052;43.338;25.502;2023-01-28T08:35:24;100665.31;;;2.22;100.00
2268;BME280;11052;43.338;25.502;2023-01-28T08:37:51;100665.28;;;2.19;100.00
2268;BME280;11052;43.338;25.502;2023-01-28T08:40:18;100666.09;;;2.15;100.00
2268;BME280;11052;43.338;25.502;2023-01-28T08:42:48;100662.81;;;2.28;100.00
2268;BME280;11052;43.338;25.502;2023-01-28T08:45:15;100673.88;;;2.26;100.00
2268;BME280;11052;43.338;25.502;2023-01-28T08:47:49;100666.34;;;2.41;100.00
2268;BME280;11052;43.338;25.502;2023-01-28T08:50:17;100659.44;;;2.33;100.00
2268;BME280;11052;43.338;25.502;2023-01-28T08:52:44;100664.63;;;2.40;100.00
2268;BME280;11052;43.338;25.502;2023-01-28T08:55:12;100659.50;;;2.39;100.00
2268;BME280;11052;43.338;25.502;2023-01-28T08:57:39;100659.47;;;2.36;100.00
2268;BME280;11052;43.338;25.502;2023-01-28T09:00:09;100658.69;;;2.41;100.00
2268;BME280;11052;43.338;25.502;2023-01-28T09:02:37;100655.28;;;2.45;100.00
2268;BME280;11052;43.338;25.502;2023-01-28T09:05:05;100657.00;;;2.45;100.00
2268;BME280;11052;43.338;25.502;2023-01-28T09:07:34;100657.09;;;2.57;100.00
2268;BME280;11052;43.338;25.502;2023-01-28T09:10:02;100657.13;;;2.63;100.00
2268;BME280;11052;43.338;25.502;2023-01-28T09:12:29;100659.59;;;2.49;100.00
2268;BME280;11052;43.338;25.502;2023-01-28T09:14:56;100654.50;;;2.51;100.00
2268;BME280;11052;43.338;25.502;2023-01-28T09:17:25;100659.59;;;2.48;100.00
2268;BME280;11052;43.338;25.502;2023-01-28T09:19:52;100654.53;;;2.54;100.00
2268;BME280;11052;43.338;25.502;2023-01-28T09:22:19;100660.47;;;2.51;100.00
2268;BME280;11052;43.338;25.502;2023-01-28T09:24:46;100652.75;;;2.45;100.00
2268;BME280;11052;43.338;25.502;2023-01-28T09:27:14;100652.81;;;2.54;100.00
2268;BME280;11052;43.338;25.502;2023-01-28T09:29:41;100656.25;;;2.56;100.00
2268;BME280;11052;43.338;25.502;2023-01-28T09:32:08;100652.84;;;2.60;100.00
2268;BME280;11052;43.338;25.502;2023-01-28T09:34:36;100658.84;;;2.64;100.00
2268;BME280;11052;43.338;25.502;2023-01-28T09:37:04;100652.88;;;2.67;100.00
2268;BME280;11052;43.338;25.502;2023-01-28T09:39:31;100661.41;;;2.66;100.00
2268;BME280;11052;43.338;25.502;2023-01-28T09:42:13;100652.03;;;2.66;100.00
2268;BME280;11052;43.338;25.502;2023-01-28T09:44:55;100657.97;;;2.60;100.00
2268;BME280;11052;43.338;25.502;2023-01-28T09:47:29;100654.53;;;2.55;100.00
2268;BME280;11052;43.338;25.502;2023-01-28T09:50:02;100661.34;;;2.55;100.00
2268;BME280;11052;43.338;25.502;2023-01-28T09:52:34;100657.09;;;2.57;100.00
2268;BME280;11052;43.338;25.502;2023-01-28T09:55:06;100658.00;;;2.68;100.00
2268;BME280;11052;43.338;25.502;2023-01-28T09:57:38;100657.22;;;2.75;100.00
2268;BME280;11052;43.338;25.502;2023-01-28T10:00:12;100663.19;;;2.76;100.00
2268;BME280;11052;43.338;25.502;2023-01-28T10:02:56;100652.06;;;2.72;100.00
2268;BME280;11052;43.338;25.502;2023-01-28T10:05:34;100658.91;;;2.72;100.00
2268;BME280;11052;43.338;25.502;2023-01-28T10:08:14;100651.22;;;2.72;100.00
2268;BME280;11052;43.338;25.502;2023-01-28T10:10:55;100654.72;;;2.86;100.00
2268;BME280;11052;43.338;25.502;2023-01-28T10:13:32;100653.94;;;2.94;100.00
2268;BME280;11052;43.338;25.502;2023-01-28T10:16:11;100667.59;;;2.93;100.00
2268;BME280;11052;43.338;25.502;2023-01-28T10:18:46;100660.81;;;3.02;100.00
2268;BME280;11052;43.338;25.502;2023-01-28T10:21:20;100661.66;;;2.97;100.00
2268;BME280;11052;43.338;25.502;2023-01-28T10:23:59;100663.44;;;3.09;100.00
2268;BME280;11052;43.338;25.502;2023-01-28T10:26:32;100661.75;;;3.13;100.00
2268;BME280;11052;43.338;25.502;2023-01-28T10:29:05;100658.34;;;3.15;100.00
2268;BME280;11052;43.338;25.502;2023-01-28T10:31:40;100656.66;;;3.17;100.00
2268;BME280;11052;43.338;25.502;2023-01-28T10:34:09;100655.88;;;3.31;100.00
2268;BME280;11052;43.338;25.502;2023-01-28T10:36:38;100655.84;;;3.26;100.00
2268;BME280;11052;43.338;25.502;2023-01-28T10:39:05;100656.69;;;3.26;100.00
2268;BME280;11052;43.338;25.502;2023-01-28T10:41:33;100655.88;;;3.32;100.00
2268;BME280;11052;43.338;25.502;2023-01-28T10:44:00;100659.34;;;3.40;100.00
2268;BME280;11052;43.338;25.502;2023-01-28T10:46:29;100654.16;;;3.33;100.00
2268;BME280;11052;43.338;25.502;2023-01-28T10:49:04;100656.75;;;3.37;100.00
2268;BME280;11052;43.338;25.502;2023-01-28T10:51:40;100659.28;;;3.31;100.00
2268;BME280;11052;43.338;25.502;2023-01-28T10:54:19;100662.72;;;3.35;100.00
2268;BME280;11052;43.338;25.502;2023-01-28T10:56:48;100666.06;;;3.21;100.00
2268;BME280;11052;43.338;25.502;2023-01-28T10:59:21;100662.72;;;3.33;100.00
2268;BME280;11052;43.338;25.502;2023-01-28T11:01:51;100659.28;;;3.31;100.00
2268;BME280;11052;43.338;25.502;2023-01-28T11:04:22;100675.50;;;3.30;100.00
2268;BME280;11052;43.338;25.502;2023-01-28T11:06:59;100670.34;;;3.22;100.00
2268;BME280;11052;43.338;25.502;2023-01-28T11:09:28;100666.13;;;3.34;100.00
2268;BME280;11052;43.338;25.502;2023-01-28T11:11:56;100672.13;;;3.37;100.00
2268;BME280;11052;43.338;25.502;2023-01-28T11:14:25;100666.06;;;3.23;100.00
2268;BME280;11052;43.338;25.502;2023-01-28T11:16:55;100667.75;;;3.19;100.00
2268;BME280;11052;43.338;25.502;2023-01-28T11:19:28;100667.78;;;3.24;100.00
2268;BME280;11052;43.338;25.502;2023-01-28T11:21:59;100661.00;;;3.32;100.00
2268;BME280;11052;43.338;25.502;2023-01-28T11:24:28;100659.28;;;3.33;100.00
2268;BME280;11052;43.338;25.502;2023-01-28T11:26:58;100663.56;;;3.35;100.00
2268;BME280;11052;43.338;25.502;2023-01-28T11:29:38;100669.53;;;3.29;100.00
2268;BME280;11052;43.338;25.502;2023-01-28T11:32:15;100667.00;;;3.37;100.00
2268;BME280;11052;43.338;25.502;2023-01-28T11:34:48;100667.00;;;3.34;100.00
2268;BME280;11052;43.338;25.502;2023-01-28T11:37:20;100666.13;;;3.35;100.00
2268;BME280;11052;43.338;25.502;2023-01-28T11:39:48;100667.88;;;3.39;100.00
2268;BME280;11052;43.338;25.502;2023-01-28T11:42:26;100668.72;;;3.40;100.00
2268;BME280;11052;43.338;25.502;2023-01-28T11:44:53;100660.16;;;3.36;100.00
2268;BME280;11052;43.338;25.502;2023-01-28T11:47:46;100666.13;;;3.32;100.00
2268;BME280;11052;43.338;25.502;2023-01-28T11:50:25;100666.03;;;3.18;100.00
2268;BME280;11052;43.338;25.502;2023-01-28T11:53:10;100666.03;;;3.17;100.00
2268;BME280;11052;43.338;25.502;2023-01-28T11:55:48;100658.34;;;3.15;100.00
2268;BME280;11052;43.338;25.502;2023-01-28T11:58:22;100672.03;;;3.20;100.00
2268;BME280;11052;43.338;25.502;2023-01-28T12:01:00;100663.53;;;3.27;100.00
2268;BME280;11052;43.338;25.502;2023-01-28T12:03:50;100661.78;;;3.22;100.00
2268;BME280;11052;43.338;25.502;2023-01-28T12:06:30;100660.91;;;3.15;100.00
2268;BME280;11052;43.338;25.502;2023-01-28T12:09:09;100665.97;;;3.05;100.00
2268;BME280;11052;43.338;25.502;2023-01-28T12:11:49;100660.78;;;2.95;100.00
2268;BME280;11052;43.338;25.502;2023-01-28T12:14:59;100665.91;;;2.95;100.00
2268;BME280;11052;43.338;25.502;2023-01-28T12:17:38;100665.94;;;3.00;100.00
2268;BME280;11052;43.338;25.502;2023-01-28T12:20:17;100664.19;;;2.97;100.00
2268;BME280;11052;43.338;25.502;2023-01-28T12:23:15;100666.00;;;3.09;100.00
2268;BME280;11052;43.338;25.502;2023-01-28T12:25:57;100661.72;;;3.08;100.00
2268;BME280;11052;43.338;25.502;2023-01-28T12:28:37;100667.63;;;2.98;100.00
2268;BME280;11052;43.338;25.502;2023-01-28T12:31:37;100661.75;;;3.13;100.00
2268;BME280;11052;43.338;25.502;2023-01-28T12:34:32;100666.72;;;2.93;100.00
2268;BME280;11052;43.338;25.502;2023-01-28T12:37:06;100664.22;;;3.01;100.00
2268;BME280;11052;43.338;25.502;2023-01-28T12:39:45;100671.03;;;2.97;100.00
2268;BME280;11052;43.338;25.502;2023-01-28T12:42:22;100671.09;;;3.08;100.00
2268;BME280;11052;43.338;25.502;2023-01-28T12:44:58;100669.44;;;3.13;100.00
2268;BME280;11052;43.338;25.502;2023-01-28T12:47:33;100676.19;;;3.03;100.00
2268;BME280;11052;43.338;25.502;2023-01-28T12:50:03;100671.94;;;3.05;100.00
2268;BME280;11052;43.338;25.502;2023-01-28T12:52:39;100673.66;;;3.06;100.00
2268;BME280;11052;43.338;25.502;2023-01-28T12:55:14;100681.34;;;3.08;100.00
2268;BME280;11052;43.338;25.502;2023-01-28T12:57:43;100684.78;;;3.10;100.00
2268;BME280;11052;43.338;25.502;2023-01-28T13:00:22;100680.47;;;3.03;100.00
2268;BME280;11052;43.338;25.502;2023-01-28T13:02:59;100688.19;;;3.10;100.00
2268;BME280;11052;43.338;25.502;2023-01-28T13:05:33;100695.81;;;3.00;100.00
2268;BME280;11052;43.338;25.502;2023-01-28T13:08:05;100696.72;;;3.09;100.00
2268;BME280;11052;43.338;25.502;2023-01-28T13:10:40;100691.56;;;3.06;100.00
2268;BME280;11052;43.338;25.502;2023-01-28T13:13:14;100687.31;;;3.08;100.00
2268;BME280;11052;43.338;25.502;2023-01-28T13:15:43;100696.75;;;3.14;100.00
2268;BME280;11052;43.338;25.502;2023-01-28T13:18:29;100701.88;;;3.15;100.00